Time;durP1;ratioP1;P1;durP2;ratioP2;P2;SDS_P1;SDS_P2;PMS_P1;PMS_P2;Temp;Humidity;BMP_temperature;BMP_pressure;BME280_temperature;BME280_humidity;BME280_pressure;Samples;Min_cycle;Max_cycle;Signal;HPM_P1;HPM_P2
2023/03/16 00:02:09;;;;;;;7.38;6.38;;;3.60;99.90;;;;;;5035412;28;20160;-44
2023/03/16 00:04:37;;;;;;;10.90;5.63;;;3.60;99.90;;;;;;5034923;28;20168;-46
2023/03/16 00:07:04;;;;;;;7.28;3.88;;;3.60;99.90;;;;;;5033576;28;20206;-44
2023/03/16 00:09:30;;;;;;;7.60;3.85;;;3.60;99.90;;;;;;5034538;28;20274;-44
2023/03/16 00:12:02;;;;;;;5.25;3.97;;;3.60;99.90;;;;;;5035114;28;20738;-45
2023/03/16 00:14:28;;;;;;;6.55;4.38;;;3.60;99.90;;;;;;5034739;28;20176;-45
2023/03/16 00:16:53;;;;;;;10.75;4.63;;;3.50;99.90;;;;;;5034773;28;20179;-45
2023/03/16 00:19:21;;;;;;;7.43;4.57;;;3.50;99.90;;;;;;5033890;28;20207;-45
2023/03/16 00:21:48;;;;;;;4.80;4.10;;;3.60;99.90;;;;;;5033350;28;20186;-45
2023/03/16 00:24:17;;;;;;;5.53;3.47;;;3.60;99.90;;;;;;5034726;28;20172;-46
2023/03/16 00:26:43;;;;;;;5.88;3.72;;;3.50;99.90;;;;;;5034926;28;20180;-46
2023/03/16 00:29:09;;;;;;;9.40;3.30;;;3.50;99.90;;;;;;5034924;28;20182;-45
2023/03/16 00:31:35;;;;;;;6.13;3.65;;;3.50;99.90;;;;;;5034395;28;20531;-49
2023/03/16 00:34:01;;;;;;;4.80;3.70;;;3.60;99.90;;;;;;5034359;28;20253;-49
2023/03/16 00:36:27;;;;;;;6.55;3.75;;;3.50;99.90;;;;;;5034286;28;20179;-48
2023/03/16 00:38:53;;;;;;;4.90;3.13;;;3.50;99.90;;;;;;5034245;28;20233;-50
2023/03/16 00:41:19;;;;;;;4.00;3.15;;;3.50;99.90;;;;;;5033418;28;20233;-49
2023/03/16 00:43:44;;;;;;;4.75;3.00;;;3.50;99.90;;;;;;5034261;28;20221;-49
2023/03/16 00:46:12;;;;;;;4.57;2.88;;;3.50;99.90;;;;;;5034573;28;20163;-49
2023/03/16 00:48:42;;;;;;;7.05;3.08;;;3.60;99.90;;;;;;5034475;28;20214;-49
2023/03/16 00:51:11;;;;;;;4.15;2.95;;;3.60;99.90;;;;;;5034766;28;20171;-50
2023/03/16 00:53:38;;;;;;;5.05;3.22;;;3.70;99.90;;;;;;5034588;28;20221;-51
2023/03/16 00:56:04;;;;;;;5.07;2.92;;;3.70;99.90;;;;;;5034051;28;20574;-51
2023/03/16 00:58:35;;;;;;;3.63;2.80;;;3.70;99.90;;;;;;5033880;28;20199;-52
2023/03/16 01:01:09;;;;;;;4.43;3.00;;;3.60;99.90;;;;;;5033607;28;20645;-51
2023/03/16 01:03:35;;;;;;;5.40;2.97;;;3.60;99.90;;;;;;5033926;28;20208;-52
2023/03/16 01:06:09;;;;;;;6.22;3.78;;;3.60;99.90;;;;;;5033923;28;20175;-50
2023/03/16 01:08:36;;;;;;;8.13;3.80;;;3.60;99.90;;;;;;5033410;28;20281;-51
2023/03/16 01:11:09;;;;;;;4.28;3.10;;;3.60;99.90;;;;;;5034034;28;20532;-51
2023/03/16 01:13:35;;;;;;;4.65;3.30;;;3.60;99.90;;;;;;5033615;28;20583;-51
2023/03/16 01:16:00;;;;;;;4.18;3.50;;;3.60;99.90;;;;;;5033711;28;20213;-51
2023/03/16 01:18:27;;;;;;;3.97;3.60;;;3.50;99.90;;;;;;5033467;28;20195;-52
2023/03/16 01:20:52;;;;;;;4.40;3.22;;;3.50;99.90;;;;;;5033339;28;20171;-51
2023/03/16 01:23:19;;;;;;;5.47;3.25;;;3.60;99.90;;;;;;5033589;28;20171;-50
2023/03/16 01:25:52;;;;;;;4.60;3.08;;;3.50;99.90;;;;;;5033441;28;20163;-51
2023/03/16 01:28:23;;;;;;;4.07;2.95;;;3.50;99.90;;;;;;5033654;28;20171;-49
2023/03/16 01:30:56;;;;;;;4.43;2.92;;;3.50;99.90;;;;;;5033294;28;20175;-51
2023/03/16 01:33:24;;;;;;;4.43;2.95;;;3.60;99.90;;;;;;5033383;28;20171;-50
2023/03/16 01:36:02;;;;;;;4.25;2.88;;;3.60;99.90;;;;;;5033207;28;20187;-51
2023/03/16 01:38:28;;;;;;;3.88;3.22;;;3.60;99.90;;;;;;5033428;28;20195;-51
2023/03/16 01:40:55;;;;;;;6.55;3.10;;;3.60;99.90;;;;;;5033191;28;20526;-50
2023/03/16 01:43:22;;;;;;;5.28;3.17;;;3.50;99.90;;;;;;5032957;28;20171;-51
2023/03/16 01:46:03;;;;;;;5.03;3.15;;;3.50;99.90;;;;;;5033068;28;20194;-51
2023/03/16 01:48:36;;;;;;;8.82;3.40;;;3.50;99.90;;;;;;5031746;28;20171;-51
2023/03/16 01:51:16;;;;;;;3.72;3.08;;;3.50;99.90;;;;;;5033243;28;20233;-52
2023/03/16 01:53:45;;;;;;;5.05;3.15;;;3.50;99.90;;;;;;5033076;28;20160;-49
2023/03/16 01:56:14;;;;;;;5.65;3.17;;;3.50;99.90;;;;;;5033003;28;20171;-47
2023/03/16 01:58:42;;;;;;;8.52;3.42;;;3.50;99.90;;;;;;5033174;28;20736;-46
2023/03/16 02:01:08;;;;;;;6.70;3.40;;;3.50;99.90;;;;;;5033137;28;20179;-47
2023/03/16 02:03:34;;;;;;;10.27;3.45;;;3.50;99.90;;;;;;5032686;28;20549;-45
2023/03/16 02:06:27;;;;;;;4.40;3.53;;;3.50;99.90;;;;;;5032824;28;20176;-45
2023/03/16 02:08:54;;;;;;;4.00;3.17;;;3.40;99.90;;;;;;5032215;28;20223;-46
2023/03/16 02:11:21;;;;;;;5.03;3.28;;;3.50;99.90;;;;;;5032263;28;20647;-46
2023/03/16 02:13:47;;;;;;;5.38;3.42;;;3.50;99.90;;;;;;5032079;28;20180;-46
2023/03/16 02:16:18;;;;;;;5.05;3.67;;;3.50;99.90;;;;;;5032299;28;20170;-45
2023/03/16 02:18:45;;;;;;;4.80;3.05;;;3.50;99.90;;;;;;5032599;28;20199;-46
2023/03/16 02:21:24;;;;;;;5.55;3.45;;;3.50;99.90;;;;;;5033005;28;20306;-46
2023/03/16 02:23:50;;;;;;;5.40;3.50;;;3.50;99.90;;;;;;5031392;28;20627;-46
2023/03/16 02:26:38;;;;;;;4.82;3.30;;;3.50;99.90;;;;;;5032215;28;20636;-45
2023/03/16 02:29:19;;;;;;;5.78;3.80;;;3.50;99.90;;;;;;5032491;28;20174;-45
2023/03/16 02:31:46;;;;;;;5.55;3.42;;;3.50;99.90;;;;;;5032401;28;20171;-45
2023/03/16 02:34:14;;;;;;;5.55;3.38;;;3.40;99.90;;;;;;5032159;28;20647;-46
2023/03/16 02:36:43;;;;;;;4.38;3.65;;;3.40;99.90;;;;;;5032472;28;20176;-45
2023/03/16 02:39:08;;;;;;;4.18;3.17;;;3.40;99.90;;;;;;5032374;28;20195;-46
2023/03/16 02:41:34;;;;;;;4.57;3.80;;;3.50;99.90;;;;;;5031795;28;20179;-46
2023/03/16 02:44:23;;;;;;;4.45;3.53;;;3.50;99.90;;;;;;5032066;28;20167;-46
2023/03/16 02:46:51;;;;;;;6.10;3.58;;;3.40;99.90;;;;;;5031594;28;20179;-45
2023/03/16 02:49:28;;;;;;;4.35;3.60;;;3.40;99.90;;;;;;5032147;28;20201;-45
2023/03/16 02:51:56;;;;;;;7.47;3.20;;;3.40;99.90;;;;;;5031859;28;20167;-46
2023/03/16 02:54:22;;;;;;;5.35;3.47;;;3.40;99.90;;;;;;5031789;28;20164;-45
2023/03/16 02:56:47;;;;;;;7.35;3.45;;;3.40;99.90;;;;;;5031886;28;20495;-46
2023/03/16 02:59:13;;;;;;;6.13;3.17;;;3.40;99.90;;;;;;5031534;28;20210;-45
2023/03/16 03:01:39;;;;;;;7.88;3.83;;;3.40;99.90;;;;;;5031972;28;20164;-45
2023/03/16 03:04:05;;;;;;;5.30;3.70;;;3.40;99.90;;;;;;5031721;28;20232;-45
2023/03/16 03:06:31;;;;;;;7.18;4.05;;;3.40;99.90;;;;;;5031101;28;20175;-45
2023/03/16 03:08:57;;;;;;;7.28;3.67;;;3.40;99.90;;;;;;5031428;28;20301;-45
2023/03/16 03:11:23;;;;;;;6.40;3.85;;;3.40;99.90;;;;;;5031481;28;20512;-45
2023/03/16 03:13:49;;;;;;;4.78;2.97;;;3.40;99.90;;;;;;5031624;28;20178;-45
2023/03/16 03:16:14;;;;;;;10.15;3.47;;;3.40;99.90;;;;;;5031409;28;20174;-45
2023/03/16 03:18:40;;;;;;;6.20;3.38;;;3.40;99.90;;;;;;5031708;28;20297;-45
2023/03/16 03:21:06;;;;;;;4.75;3.42;;;3.30;99.90;;;;;;5031602;28;20182;-46
2023/03/16 03:23:34;;;;;;;12.25;4.53;;;3.40;99.90;;;;;;5031252;28;20167;-46
2023/03/16 03:26:00;;;;;;;5.05;3.67;;;3.40;99.90;;;;;;5030553;28;20313;-45
2023/03/16 03:28:26;;;;;;;7.80;4.28;;;3.40;99.90;;;;;;5031278;28;20703;-46
2023/03/16 03:30:51;;;;;;;7.25;4.43;;;3.40;99.90;;;;;;5029981;28;20262;-46
2023/03/16 03:33:18;;;;;;;5.60;4.32;;;3.40;99.90;;;;;;5031194;28;20167;-46
2023/03/16 03:35:43;;;;;;;6.57;4.47;;;3.40;99.90;;;;;;5030896;28;20176;-45
2023/03/16 03:38:10;;;;;;;8.27;4.32;;;3.40;99.90;;;;;;5031258;28;20177;-45
2023/03/16 03:40:36;;;;;;;7.75;4.45;;;3.30;99.90;;;;;;5031408;28;20556;-47
2023/03/16 03:43:02;;;;;;;5.85;4.00;;;3.30;99.90;;;;;;5031325;28;20183;-46
2023/03/16 03:45:28;;;;;;;7.57;4.28;;;3.30;99.90;;;;;;5030990;28;20227;-46
2023/03/16 03:47:54;;;;;;;5.47;4.03;;;3.30;99.90;;;;;;5031091;28;20548;-46
2023/03/16 03:50:20;;;;;;;5.68;3.90;;;3.20;99.90;;;;;;5030996;28;20163;-45
2023/03/16 03:52:47;;;;;;;8.30;4.18;;;3.30;99.90;;;;;;5030981;28;20665;-46
2023/03/16 03:55:12;;;;;;;5.88;3.92;;;3.30;99.90;;;;;;5030948;28;20606;-45
2023/03/16 03:57:38;;;;;;;4.85;3.80;;;3.30;99.90;;;;;;5031319;28;20190;-47
2023/03/16 04:00:10;;;;;;;4.13;3.60;;;3.30;99.90;;;;;;5030978;28;20278;-46
2023/03/16 04:02:36;;;;;;;10.40;4.05;;;3.30;99.90;;;;;;5031259;28;20172;-48
2023/03/16 04:05:02;;;;;;;5.72;3.92;;;3.30;99.90;;;;;;5029280;28;20583;-45
2023/03/16 04:07:27;;;;;;;4.50;3.22;;;3.30;99.90;;;;;;5030721;28;20253;-47
2023/03/16 04:09:53;;;;;;;8.10;4.28;;;3.30;99.90;;;;;;5030904;28;20234;-46
2023/03/16 04:12:18;;;;;;;6.93;3.90;;;3.30;99.90;;;;;;5030842;28;20156;-47
2023/03/16 04:14:44;;;;;;;4.55;3.33;;;3.30;99.90;;;;;;5030361;28;20182;-46
2023/03/16 04:17:11;;;;;;;7.25;4.03;;;3.40;99.90;;;;;;5031180;28;20163;-46
2023/03/16 04:19:36;;;;;;;4.70;3.72;;;3.40;99.90;;;;;;5030740;28;20261;-45
2023/03/16 04:22:02;;;;;;;5.22;3.33;;;3.40;99.90;;;;;;5030758;28;20176;-47
2023/03/16 04:24:28;;;;;;;4.53;3.13;;;3.40;99.90;;;;;;5030418;28;20262;-45
2023/03/16 04:26:54;;;;;;;5.10;2.75;;;3.40;99.90;;;;;;5030784;28;20599;-46
2023/03/16 04:29:19;;;;;;;6.20;3.03;;;3.40;99.90;;;;;;5030939;28;20171;-45
2023/03/16 04:31:46;;;;;;;9.70;4.25;;;3.40;99.90;;;;;;5030408;28;20186;-46
2023/03/16 04:34:12;;;;;;;6.93;4.47;;;3.40;99.90;;;;;;5030501;28;20225;-46
2023/03/16 04:36:38;;;;;;;13.25;6.55;;;3.40;99.90;;;;;;5031720;28;20193;-51
2023/03/16 04:39:04;;;;;;;14.05;6.63;;;3.40;99.90;;;;;;5032967;28;20215;-48
2023/03/16 04:41:30;;;;;;;13.82;6.28;;;3.40;99.90;;;;;;5034358;28;20683;-50
2023/03/16 04:43:56;;;;;;;8.90;5.18;;;3.40;99.90;;;;;;5032956;28;20182;-50
2023/03/16 04:46:22;;;;;;;13.32;6.13;;;3.40;99.90;;;;;;5034410;28;20167;-51
2023/03/16 04:48:48;;;;;;;11.35;6.05;;;3.40;99.90;;;;;;5034298;28;20253;-51
2023/03/16 04:51:14;;;;;;;9.13;4.72;;;3.40;99.90;;;;;;5033914;28;20163;-51
2023/03/16 04:53:39;;;;;;;7.30;4.38;;;3.50;99.90;;;;;;5034566;28;20171;-50
2023/03/16 04:56:06;;;;;;;11.70;4.75;;;3.50;99.90;;;;;;5033972;28;20226;-50
2023/03/16 04:58:32;;;;;;;7.22;4.25;;;3.50;99.90;;;;;;5033976;28;20249;-50
2023/03/16 05:00:57;;;;;;;12.82;6.75;;;6.00;99.90;;;;;;5033636;28;20643;-50
2023/03/16 05:03:23;;;;;;;11.07;6.32;;;3.50;99.90;;;;;;5033233;28;20163;-52
2023/03/16 05:05:49;;;;;;;8.55;5.65;;;3.50;99.90;;;;;;5033683;28;20177;-49
2023/03/16 05:08:15;;;;;;;14.55;5.85;;;3.50;99.90;;;;;;5033775;28;20257;-51
2023/03/16 05:10:41;;;;;;;12.70;5.68;;;3.50;99.90;;;;;;5032411;28;20570;-47
2023/03/16 05:13:06;;;;;;;9.38;5.78;;;3.60;99.90;;;;;;5034311;28;20756;-46
2023/03/16 05:15:32;;;;;;;7.05;4.30;;;3.60;99.90;;;;;;5033416;28;20163;-52
2023/03/16 05:17:58;;;;;;;7.20;4.45;;;3.60;99.90;;;;;;5033669;28;20182;-51
2023/03/16 05:20:24;;;;;;;7.28;4.50;;;3.60;99.90;;;;;;5033367;28;20206;-52
2023/03/16 05:22:50;;;;;;;10.63;5.15;;;3.60;99.90;;;;;;5033263;28;20240;-50
2023/03/16 05:25:17;;;;;;;5.75;4.53;;;3.60;99.90;;;;;;5033352;28;20597;-50
2023/03/16 05:27:45;;;;;;;8.52;5.00;;;3.60;99.90;;;;;;5033555;28;20250;-51
2023/03/16 05:30:12;;;;;;;10.15;6.05;;;3.60;99.90;;;;;;5033644;28;20182;-47
2023/03/16 05:32:38;;;;;;;9.57;5.30;;;3.60;99.90;;;;;;5034097;28;20174;-51
2023/03/16 05:35:04;;;;;;;12.68;5.05;;;3.60;99.90;;;;;;5033272;28;20160;-50
2023/03/16 05:37:30;;;;;;;9.02;5.28;;;3.60;99.90;;;;;;5033223;28;20156;-49
2023/03/16 05:39:57;;;;;;;15.63;7.45;;;3.60;99.90;;;;;;5033186;28;20298;-50
2023/03/16 05:42:25;;;;;;;6.80;4.53;;;3.60;99.90;;;;;;5033226;28;20282;-49
2023/03/16 05:44:52;;;;;;;15.50;6.30;;;3.60;99.90;;;;;;5033105;28;20175;-46
2023/03/16 05:47:18;;;;;;;17.92;9.00;;;3.60;99.90;;;;;;5033299;28;20598;-48
2023/03/16 05:49:44;;;;;;;12.05;5.72;;;3.60;99.90;;;;;;5032012;28;20175;-45
2023/03/16 05:52:09;;;;;;;9.98;5.03;;;3.60;99.90;;;;;;5032066;28;20195;-49
2023/03/16 05:54:35;;;;;;;11.38;6.40;;;3.60;99.90;;;;;;5033111;28;20193;-46
2023/03/16 05:57:01;;;;;;;18.85;6.60;;;3.70;99.90;;;;;;5032749;28;20206;-45
2023/03/16 05:59:26;;;;;;;8.20;5.25;;;3.70;99.90;;;;;;5032644;28;20207;-49
2023/03/16 06:01:52;;;;;;;11.18;6.78;;;3.70;99.90;;;;;;5032672;28;20651;-50
2023/03/16 06:04:17;;;;;;;10.73;6.05;;;3.70;99.90;;;;;;5032618;28;20628;-51
2023/03/16 06:06:43;;;;;;;9.40;5.70;;;3.70;99.90;;;;;;5032741;28;20178;-47
2023/03/16 06:09:08;;;;;;;14.05;6.45;;;3.70;99.90;;;;;;5033078;28;20222;-50
2023/03/16 06:11:34;;;;;;;22.98;9.20;;;3.80;99.90;;;;;;5032336;28;20184;-51
2023/03/16 06:14:00;;;;;;;10.98;5.90;;;3.80;99.90;;;;;;5032618;28;20174;-51
2023/03/16 06:16:25;;;;;;;9.85;5.68;;;3.90;99.90;;;;;;5032832;28;20174;-51
2023/03/16 06:18:51;;;;;;;8.95;4.95;;;3.90;99.90;;;;;;5032308;28;20679;-47
2023/03/16 06:21:17;;;;;;;14.10;7.30;;;3.90;99.90;;;;;;5012690;28;20192;-46
2023/03/16 06:23:43;;;;;;;13.07;6.25;;;3.90;99.90;;;;;;5012510;28;20172;-46
2023/03/16 06:26:09;;;;;;;16.27;6.35;;;4.00;99.90;;;;;;5012885;28;20722;-46
2023/03/16 06:28:35;;;;;;;16.50;7.53;;;5.30;99.90;;;;;;5012865;28;20203;-46
2023/03/16 06:31:01;;;;;;;19.15;8.65;;;4.00;99.90;;;;;;5030580;28;20256;-46
2023/03/16 06:33:26;;;;;;;11.23;6.50;;;4.00;99.90;;;;;;5031944;28;20189;-45
2023/03/16 06:35:52;;;;;;;12.23;6.47;;;2.10;99.90;;;;;;5032018;28;20233;-44
2023/03/16 06:38:18;;;;;;;8.68;5.80;;;4.10;99.90;;;;;;5031786;28;20183;-44
2023/03/16 06:40:43;;;;;;;9.02;5.43;;;4.00;99.90;;;;;;5032012;28;20233;-44
2023/03/16 06:43:09;;;;;;;8.73;4.93;;;4.10;99.90;;;;;;5032649;28;20584;-44
2023/03/16 06:45:35;;;;;;;12.45;6.30;;;4.10;99.90;;;;;;5032080;28;20171;-44
2023/03/16 06:48:01;;;;;;;10.98;6.78;;;4.20;99.90;;;;;;5031830;28;20168;-44
2023/03/16 06:50:27;;;;;;;9.02;6.22;;;4.20;99.90;;;;;;5031813;28;20179;-43
2023/03/16 06:52:52;;;;;;;7.55;5.15;;;4.20;99.90;;;;;;5031721;28;20209;-44
2023/03/16 06:55:18;;;;;;;13.07;5.57;;;4.30;99.90;;;;;;5031753;28;20167;-44
2023/03/16 06:57:44;;;;;;;8.30;5.63;;;4.30;99.90;;;;;;5031651;28;20178;-47
2023/03/16 07:00:12;;;;;;;11.05;5.68;;;4.30;99.90;;;;;;5031391;28;20218;-46
2023/03/16 07:02:39;;;;;;;8.82;5.55;;;4.30;99.90;;;;;;5032076;28;20183;-46
2023/03/16 07:05:06;;;;;;;7.40;5.18;;;4.40;99.90;;;;;;5031933;28;20190;-47
2023/03/16 07:07:32;;;;;;;8.45;4.88;;;4.40;99.90;;;;;;5031494;28;20725;-46
2023/03/16 07:09:58;;;;;;;7.82;5.00;;;4.50;99.90;;;;;;5031676;28;20585;-48
2023/03/16 07:12:24;;;;;;;8.90;5.10;;;4.40;99.90;;;;;;5031881;28;20164;-46
2023/03/16 07:14:50;;;;;;;6.32;5.30;;;4.40;99.90;;;;;;5031503;28;20205;-52
2023/03/16 07:17:15;;;;;;;6.78;5.50;;;4.50;99.90;;;;;;5031170;28;20654;-46
2023/03/16 07:19:42;;;;;;;9.63;4.90;;;4.60;99.90;;;;;;5030934;28;20285;-46
2023/03/16 07:22:08;;;;;;;7.45;5.45;;;4.60;99.90;;;;;;5030345;28;20599;-46
2023/03/16 07:24:34;;;;;;;7.15;5.65;;;4.60;99.90;;;;;;5031349;28;20171;-45
2023/03/16 07:27:00;;;;;;;8.07;4.97;;;4.70;99.90;;;;;;5031421;28;20661;-46
2023/03/16 07:29:26;;;;;;;9.98;5.35;;;4.80;99.90;;;;;;5031593;28;20529;-46
2023/03/16 07:31:52;;;;;;;7.85;5.18;;;4.90;99.90;;;;;;5031201;28;20171;-46
2023/03/16 07:34:18;;;;;;;10.55;5.85;;;4.90;99.90;;;;;;5031432;28;20178;-46
2023/03/16 07:36:44;;;;;;;9.38;5.07;;;5.00;99.90;;;;;;5031131;28;20167;-46
2023/03/16 07:39:13;;;;;;;9.73;5.75;;;5.20;99.90;;;;;;5030790;28;20244;-45
2023/03/16 07:41:39;;;;;;;7.32;5.40;;;5.20;99.90;;;;;;5031717;28;20182;-46
2023/03/16 07:44:04;;;;;;;8.20;5.35;;;5.30;99.90;;;;;;5030410;28;20270;-46
2023/03/16 07:46:31;;;;;;;6.78;5.03;;;5.40;99.90;;;;;;5031067;28;20624;-46
2023/03/16 07:48:57;;;;;;;8.15;5.22;;;5.50;99.90;;;;;;5030926;28;20182;-46
2023/03/16 07:51:22;;;;;;;7.25;4.97;;;5.50;99.90;;;;;;5031020;28;20176;-46
2023/03/16 07:53:48;;;;;;;10.05;5.10;;;5.60;99.90;;;;;;5030892;28;20525;-45
2023/03/16 07:56:14;;;;;;;8.27;4.97;;;5.70;99.90;;;;;;5030963;28;20159;-45
2023/03/16 07:58:40;;;;;;;8.90;5.35;;;5.70;99.90;;;;;;5030848;28;20167;-45
2023/03/16 08:01:06;;;;;;;11.82;5.45;;;5.90;99.90;;;;;;5031548;28;20189;-47
2023/03/16 08:03:32;;;;;;;12.13;5.57;;;6.00;99.90;;;;;;5030820;28;20171;-46
2023/03/16 08:05:58;;;;;;;7.60;5.25;;;6.00;99.90;;;;;;5030864;28;20237;-45
2023/03/16 08:08:23;;;;;;;8.77;4.68;;;6.10;99.90;;;;;;5030623;28;20226;-46
2023/03/16 08:10:51;;;;;;;7.35;4.80;;;6.10;99.90;;;;;;5030650;28;20175;-45
2023/03/16 08:13:17;;;;;;;8.32;4.82;;;6.10;99.90;;;;;;5032974;28;20172;-45
2023/03/16 08:15:54;;;;;;;8.15;5.15;;;6.20;99.90;;;;;;5034447;28;20628;-47
2023/03/16 08:18:22;;;;;;;9.73;5.45;;;6.20;99.90;;;;;;5033910;28;20229;-49
2023/03/16 08:20:48;;;;;;;8.55;5.00;;;6.30;99.90;;;;;;5034290;28;20270;-50
2023/03/16 08:23:14;;;;;;;6.38;4.43;;;6.30;99.90;;;;;;5032882;28;20254;-44
2023/03/16 08:25:40;;;;;;;7.78;4.57;;;6.30;99.90;;;;;;5034686;28;20171;-45
2023/03/16 08:28:07;;;;;;;9.63;5.30;;;6.40;99.90;;;;;;5034303;28;20168;-47
2023/03/16 08:30:34;;;;;;;9.95;5.15;;;6.50;99.90;;;;;;5034200;28;20179;-45
2023/03/16 08:33:01;;;;;;;8.40;4.53;;;6.60;99.90;;;;;;5033782;28;20179;-50
2023/03/16 08:35:28;;;;;;;5.75;4.55;;;6.60;99.90;;;;;;5034143;28;20639;-46
2023/03/16 08:37:54;;;;;;;8.40;4.78;;;6.50;99.90;;;;;;5033726;28;20254;-46
2023/03/16 08:40:21;;;;;;;6.47;4.63;;;6.50;99.90;;;;;;5033891;28;20211;-44
2023/03/16 08:42:49;;;;;;;8.15;5.05;;;6.50;99.90;;;;;;5034075;28;20172;-45
2023/03/16 08:45:16;;;;;;;8.68;5.50;;;6.50;99.90;;;;;;5034077;28;20528;-48
2023/03/16 08:47:42;;;;;;;8.13;5.50;;;6.50;99.90;;;;;;5033784;28;20190;-45
2023/03/16 08:50:11;;;;;;;13.63;6.28;;;6.60;99.90;;;;;;5034059;28;20249;-46
2023/03/16 08:52:36;;;;;;;13.00;6.15;;;6.60;99.90;;;;;;5034338;28;20523;-46
2023/03/16 08:55:04;;;;;;;15.32;6.50;;;6.60;99.90;;;;;;5033774;28;20630;-46
2023/03/16 08:57:34;;;;;;;10.07;5.20;;;6.70;99.90;;;;;;5033507;28;20172;-46
2023/03/16 09:00:00;;;;;;;9.30;5.72;;;6.60;99.90;;;;;;5033487;28;20205;-47
2023/03/16 09:02:26;;;;;;;8.32;5.90;;;6.70;99.90;;;;;;5033408;28;20171;-47
2023/03/16 09:04:52;;;;;;;9.80;5.35;;;6.90;99.90;;;;;;5033306;28;20429;-43
2023/03/16 09:07:18;;;;;;;6.07;4.70;;;6.90;99.90;;;;;;5033043;28;20211;-43
2023/03/16 09:09:45;;;;;;;5.45;4.45;;;6.90;99.90;;;;;;5033357;28;20187;-44
2023/03/16 09:12:11;;;;;;;6.07;4.43;;;7.00;99.90;;;;;;5033586;28;20221;-43
2023/03/16 09:14:37;;;;;;;6.97;4.97;;;7.10;99.90;;;;;;5033250;28;20189;-45
2023/03/16 09:17:04;;;;;;;9.57;5.18;;;7.30;99.90;;;;;;5033034;28;20167;-44
2023/03/16 09:19:30;;;;;;;7.05;4.70;;;7.40;99.90;;;;;;5033328;28;20215;-42
2023/03/16 09:21:57;;;;;;;5.18;4.50;;;7.50;99.90;;;;;;5033489;28;20206;-44
2023/03/16 09:24:23;;;;;;;6.28;4.78;;;7.70;99.90;;;;;;5031485;28;20639;-44
2023/03/16 09:26:49;;;;;;;8.73;4.68;;;7.90;99.90;;;;;;5013266;28;20191;-44
2023/03/16 09:29:15;;;;;;;6.72;4.50;;;8.00;99.90;;;;;;5013042;28;20175;-45
2023/03/16 09:31:41;;;;;;;5.88;4.45;;;8.10;99.90;;;;;;5013286;28;20168;-44
2023/03/16 09:34:08;;;;;;;5.00;3.92;;;8.10;99.90;;;;;;5013450;28;20719;-44
2023/03/16 09:36:34;;;;;;;5.25;3.97;;;8.00;99.90;;;;;;5013310;28;20175;-46
2023/03/16 09:39:00;;;;;;;5.53;4.32;;;8.00;99.90;;;;;;5029372;28;20570;-44
2023/03/16 09:41:47;;;;;;;7.30;4.22;;;8.00;99.90;;;;;;5032769;28;20172;-45
2023/03/16 09:44:35;;;;;;;8.30;4.30;;;8.00;99.90;;;;;;5033015;28;20225;-44
2023/03/16 09:47:03;;;;;;;5.43;3.72;;;8.00;99.90;;;;;;5032780;28;20175;-45
2023/03/16 09:49:36;;;;;;;5.20;3.88;;;7.80;99.90;;;;;;5032890;28;20174;-46
2023/03/16 09:52:05;;;;;;;4.82;4.28;;;7.60;99.90;;;;;;5032898;28;20187;-46
2023/03/16 09:54:52;;;;;;;6.55;4.65;;;7.70;99.90;;;;;;5032614;28;20163;-40
2023/03/16 09:57:39;;;;;;;6.18;4.75;;;7.80;99.90;;;;;;5032626;28;20538;-41
2023/03/16 10:00:25;;;;;;;6.13;3.67;;;7.80;99.90;;;;;;5032648;28;20206;-41
2023/03/16 10:03:12;;;;;;;7.72;4.00;;;7.80;99.90;;;;;;5032378;28;20167;-45
2023/03/16 10:05:38;;;;;;;9.20;4.35;;;7.90;99.90;;;;;;5031414;28;20639;-45
2023/03/16 10:08:17;;;;;;;6.47;4.28;;;7.90;99.90;;;;;;5032283;28;20608;-42
2023/03/16 10:11:13;;;;;;;6.03;3.58;;;7.90;99.90;;;;;;5032416;28;20191;-44
2023/03/16 10:13:51;;;;;;;4.50;3.80;;;8.00;99.90;;;;;;5032364;28;20591;-47
2023/03/16 10:16:21;;;;;;;5.38;4.00;;;8.10;99.90;;;;;;5031964;28;20183;-44
2023/03/16 10:18:49;;;;;;;4.35;3.95;;;8.30;99.90;;;;;;5030939;28;20171;-43
2023/03/16 10:21:18;;;;;;;8.30;4.05;;;8.50;99.90;;;;;;5032141;28;20180;-48
2023/03/16 10:23:48;;;;;;;5.70;3.70;;;8.80;99.90;;;;;;5030851;28;20167;-42
2023/03/16 10:26:22;;;;;;;5.55;4.10;;;8.80;99.90;;;;;;5032147;28;20171;-49
2023/03/16 10:28:48;;;;;;;6.65;3.55;;;8.80;99.90;;;;;;5031942;28;20588;-46
2023/03/16 10:31:16;;;;;;;3.63;3.30;;;8.80;99.90;;;;;;5031565;28;20250;-45
2023/03/16 10:33:42;;;;;;;5.20;4.15;;;8.90;99.90;;;;;;5031788;28;20175;-45
2023/03/16 10:36:28;;;;;;;6.03;3.58;;;8.90;99.90;;;;;;5031499;28;20233;-46
2023/03/16 10:39:00;;;;;;;6.10;4.47;;;9.00;99.90;;;;;;5031526;28;20191;-47
2023/03/16 10:41:39;;;;;;;6.28;4.18;;;9.10;99.90;;;;;;5031850;28;20184;-49
2023/03/16 10:44:20;;;;;;;10.52;4.07;;;9.10;99.90;;;;;;5031951;28;20635;-44
2023/03/16 10:46:56;;;;;;;5.57;3.45;;;9.20;99.90;;;;;;5031459;28;20179;-46
2023/03/16 10:49:34;;;;;;;5.00;3.83;;;9.20;99.90;;;;;;5031517;28;20167;-48
2023/03/16 10:52:12;;;;;;;3.80;3.42;;;9.60;99.90;;;;;;5031426;28;20170;-44
2023/03/16 10:54:39;;;;;;;6.43;4.00;;;10.00;99.90;;;;;;5031793;28;20497;-45
2023/03/16 10:57:21;;;;;;;5.85;4.13;;;10.00;99.90;;;;;;5031771;28;20195;-46
2023/03/16 10:59:49;;;;;;;6.22;4.07;;;10.10;99.90;;;;;;5031406;28;20206;-43
2023/03/16 11:02:22;;;;;;;6.50;3.58;;;10.20;99.90;;;;;;5031443;28;20175;-45
2023/03/16 11:04:48;;;;;;;5.03;3.55;;;10.30;99.90;;;;;;5029433;28;20190;-46
2023/03/16 11:07:17;;;;;;;6.38;4.60;;;10.30;99.90;;;;;;5030985;28;20210;-45
2023/03/16 11:09:43;;;;;;;5.57;3.10;;;10.40;99.90;;;;;;5031274;28;20178;-46
2023/03/16 11:12:14;;;;;;;6.95;3.58;;;10.20;99.90;;;;;;5031428;28;20516;-44
2023/03/16 11:14:44;;;;;;;7.43;3.35;;;10.30;99.90;;;;;;5030950;28;20217;-47
2023/03/16 11:17:14;;;;;;;5.72;3.10;;;10.20;99.90;;;;;;5030797;28;20195;-46
2023/03/16 11:19:49;;;;;;;5.93;3.83;;;10.70;99.90;;;;;;5031035;28;20741;-45
2023/03/16 11:22:18;;;;;;;6.47;3.00;;;10.60;99.90;;;;;;5030771;28;20182;-45
2023/03/16 11:24:54;;;;;;;4.32;2.85;;;10.40;99.90;;;;;;5030983;28;20166;-46
2023/03/16 11:27:26;;;;;;;4.57;2.67;;;10.30;99.90;;;;;;5030774;28;20186;-45
2023/03/16 11:30:04;;;;;;;6.47;3.25;;;10.30;99.90;;;;;;5030243;28;20178;-49
2023/03/16 11:32:36;;;;;;;5.53;3.30;;;10.20;99.90;;;;;;5030838;28;20229;-48
2023/03/16 11:35:10;;;;;;;3.40;2.83;;;10.40;99.90;;;;;;5030454;28;20179;-51
2023/03/16 11:37:42;;;;;;;6.63;3.85;;;10.40;99.90;;;;;;5031365;28;20245;-47
2023/03/16 11:40:28;;;;;;;10.10;5.13;;;10.50;99.90;;;;;;5030946;28;20222;-50
2023/03/16 11:43:17;;;;;;;8.60;4.60;;;10.50;99.90;;;;;;5030784;28;20250;-47
2023/03/16 11:46:10;;;;;;;6.88;3.70;;;10.60;99.90;;;;;;5030433;28;20202;-49
2023/03/16 11:49:15;;;;;;;7.45;4.30;;;10.80;99.90;;;;;;5031079;28;20163;-48
2023/03/16 11:51:40;;;;;;;6.95;3.70;;;10.80;99.90;;;;;;5030589;28;20171;-50
2023/03/16 11:54:24;;;;;;;5.82;3.40;;;10.90;99.90;;;;;;5027945;28;20186;-50
2023/03/16 11:57:10;;;;;;;5.28;3.03;;;10.90;99.90;;;;;;5030564;28;20163;-51
2023/03/16 12:00:04;;;;;;;6.60;2.63;;;10.90;99.90;;;;;;5029111;28;20215;-52
2023/03/16 12:02:57;;;;;;;2.50;2.20;;;11.00;99.90;;;;;;5029505;28;20213;-52
2023/03/16 12:05:55;;;;;;;6.68;3.10;;;11.10;99.90;;;;;;5030393;28;20187;-51
2023/03/16 12:08:58;;;;;;;4.60;2.78;;;11.40;99.90;;;;;;5030392;28;20694;-49
2023/03/16 12:11:37;;;;;;;4.70;3.50;;;11.40;99.90;;;;;;5030108;28;20639;-51
2023/03/16 12:14:22;;;;;;;5.90;3.75;;;11.50;99.90;;;;;;5029763;28;20220;-49
2023/03/16 12:17:03;;;;;;;5.03;3.38;;;11.40;99.90;;;;;;5030676;28;20267;-51
2023/03/16 12:20:23;;;;;;;3.45;2.20;;;11.50;99.90;;;;;;5030227;28;20278;-53
2023/03/16 12:22:58;;;;;;;2.67;2.00;;;11.40;99.90;;;;;;5028196;28;20715;-51
2023/03/16 12:25:28;;;;;;;4.57;2.80;;;11.40;99.90;;;;;;5029568;28;20290;-52
2023/03/16 12:27:56;;;;;;;5.95;3.00;;;11.50;99.90;;;;;;5030827;28;20262;-51
2023/03/16 12:30:43;;;;;;;5.18;3.25;;;11.50;99.90;;;;;;5030526;28;20183;-50
2023/03/16 12:33:47;;;;;;;8.98;3.35;;;11.50;99.90;;;;;;5030094;28;20638;-50
2023/03/16 12:36:15;;;;;;;11.20;4.80;;;11.50;99.90;;;;;;5010434;28;20697;-51
2023/03/16 12:39:00;;;;;;;19.88;7.40;;;11.50;99.90;;;;;;5010739;28;20176;-50
2023/03/16 12:41:47;;;;;;;6.18;3.05;;;11.60;99.90;;;;;;5009405;28;20536;-49
2023/03/16 12:44:32;;;;;;;4.00;2.92;;;11.60;99.90;;;;;;5010533;28;20274;-50
2023/03/16 12:47:25;;;;;;;3.53;2.03;;;11.80;99.90;;;;;;5024920;28;20655;-49
2023/03/16 12:49:51;;;;;;;8.48;3.95;;;11.60;99.90;;;;;;5029985;28;20195;-52
2023/03/16 12:52:17;;;;;;;10.60;4.45;;;11.60;99.90;;;;;;5029916;28;20202;-47
2023/03/16 12:55:05;;;;;;;18.85;9.60;;;11.70;99.90;;;;;;5029486;28;20210;-45
2023/03/16 12:57:31;;;;;;;10.55;4.43;;;11.80;99.90;;;;;;5010535;28;20168;-49
2023/03/16 12:59:59;;;;;;;9.45;4.53;;;11.90;99.90;;;;;;5013608;28;20681;-48
2023/03/16 13:02:29;;;;;;;2.90;2.30;;;12.00;99.90;;;;;;5020674;28;20722;-49
2023/03/16 13:05:06;;;;;;;7.78;4.07;;;12.10;99.90;;;;;;5033359;28;20171;-48
2023/03/16 13:07:32;;;;;;;7.30;3.80;;;12.20;99.90;;;;;;5033367;28;20203;-51